Historyczne dane pomiarowe

Dodano dane terminowe – wersja testowa.

Dane z okresu 1951-2019

Wersja bazy: 1.34 [2019-03-16, lista zmian], aktualizacja planowana na 2019-04-15

Dane meteo z obszaru Polski uzyskane na podstawie danych udostępnionych przez Instytut Meteorologii i Gospodarki Wodnej – Państwowy Instytut Badawczy.

 

Wybierz Datę:    

       

TemperaturaWilgotnośćWiatrCiśnienieOpadyŚniegCzas trwania zjawisk
 Stacja t tx tn tng RH VA  wxwx mslp ppp RRR   cm mm wxwxwxwxwxwxwx
1994-08-14 14.4 17.9 11.5 10.8-- 4.7 8.0---- 0.0------------
1994-08-13 16.9 21.7 14.9 14.3-- 7.7 7.7---- 8.9------------
1994-08-12 17.4 21.3 15.6 14.8-- 8.0 4.0---- 0.2------------
1994-08-11 18.2 23.4 11.7 10.8-- 6.0 2.7---- 0.2------------
1994-08-10 19.3 24.1 15.5 14.8-- 4.3 3.0---- 0.0------------
1994-08-09 18.1 21.0 15.5 15.4-- 8.0 2.3---- 28.5------------
1994-08-08 19.2 24.6 16.5 15.8-- 7.3 2.7---- 11.3------------
1994-08-07 23.3 29.3 17.5 15.8-- 2.3 2.7---- 7.9------------
1994-08-06 24.1 31.9 15.7 14.8-- 1.0 1.7---- 0.0------------
1994-08-05 23.5 31.2 15.5 15.0-- 0.0 1.7---- 0.0------------
1994-08-04 21.8 29.6 15.6 14.7-- 4.0 3.0---- 22.3------------
1994-08-03 23.4 29.9 15.8 14.8-- 4.7 3.3---- 0.0------------
1994-08-02 24.8 31.7 20.1 18.9-- 5.0 1.0---- 0.2------------
1994-08-01 26.0 34.5 16.1 14.8-- 1.3 2.7---- 0.0------------
1994-07-31 26.5 34.9 16.0 15.0 57.5- 0.7 1.0---- 0.0------------
1994-07-30 26.0 33.8 15.0 14.3 49.3- 1.3 2.0---- 0.0------------
1994-07-29 26.3 34.4 15.2 14.6 47.3- 1.3 1.3---- 0.0------------
1994-07-28 25.6 33.8 14.5 13.6 49.5- 2.0 1.3---- 0.0------------
1994-07-27 24.6 33.1 13.4 12.3 50.3- 1.3 1.7---- 0.0------------
1994-07-26 24.6 32.6 14.4 13.3 50.0- 1.7 1.7---- 0.0------------
1994-07-25 23.4 31.2 12.5 11.3 51.0- 1.7 1.7---- 0.0------------
1994-07-24 22.1 29.4 11.2 10.3 51.5- 1.0 2.0---- 0.0------------
1994-07-23 21.3 27.9 11.4 10.3 55.0- 1.0 1.7---- 0.0------------
1994-07-22 19.9 25.1 10.9 8.8 61.3- 1.3 1.3---- 0.0------------
1994-07-21 19.5 26.8 8.5 7.8 53.8- 0.7 1.7---- 0.0------------
1994-07-20 16.9 23.3 9.4 8.8 62.0- 1.7 2.0---- 0.0------------
1994-07-19 18.1 22.9 12.0 11.8 63.3- 1.0 3.0---- 0.0------------
1994-07-18 20.2 23.1 17.0 15.4 72.0- 6.3 1.7---- 0.0------------
1994-07-17 21.7 26.9 16.9 15.3 69.3- 5.7 2.3---- 0.0------------
1994-07-16 23.1 30.4 13.2 11.3 57.0- 1.3 1.3---- 0.0------------
1994-07-15 23.4 28.4 16.5 14.8 52.3- 0.3 1.3---- 0.0------------
1994-07-14 23.2 29.4 17.0 14.8 64.8- 1.7 2.0---- 0.0------------
1994-07-13 22.8 29.0 13.5 11.3 59.0- 1.0 2.3---- 0.0------------
1994-07-12 22.3 28.6 14.1 13.8 59.3- 1.3 1.7---- 0.0------------
1994-07-11 19.2 24.6 12.5 11.8 73.3- 5.3 3.3---- 0.0------------
1994-07-10 17.8 24.9 11.2 10.8 69.0- 5.7 2.7---- 24.5------------
1994-07-09 13.9 15.2 11.5 10.8 89.3- 8.0 4.0---- 4.3------------
1994-07-08 15.5 23.4 12.2 11.3 82.5- 5.3 4.7---- 14.4------------
1994-07-07 19.8 26.3 11.2 10.5 57.5- 2.7 2.7---- 0.5------------
1994-07-06 19.0 24.3 9.2 8.3 51.0- 0.0 2.7---- 0.0------------
1994-07-05 19.3 25.0 11.4 9.9 56.0- 0.3 1.7---- 0.0------------
1994-07-04 19.8 25.4 9.0 9.0 56.3- 0.3 1.7---- 0.0------------
1994-07-03 18.2 24.5 7.9 7.0 57.8- 0.0 1.3---- 0.0------------
1994-07-02 17.3 22.8 9.1 7.8 61.8- 0.0 2.0---- 0.0------------
1994-07-01 17.3 21.8 8.5 8.3 62.0- 0.0 3.7---- 0.0------------
1994-06-30 21.7 26.6 16.0 14.8 75.8- 5.3 2.3---- 0.2------------
1994-06-29 23.2 28.5 14.1 13.5 62.3- 0.3 2.0---- 0.0------------
1994-06-28 22.4 26.8 15.6 13.8 62.5- 0.0 2.3---- 0.0------------
1994-06-27 24.6 29.8 18.3 10.8 65.3- 1.3 2.3---- 0.0------------
1994-06-26 20.6 28.1 11.2 8.8 55.3- 1.0 4.3---- 0.0------------
1994-06-25 15.0 22.0 5.6 4.7 64.0- 1.0 2.3---- 0.0------------
1994-06-24 13.6 18.1 8.0 6.3 64.5- 2.0 5.3---- 0.0------------
1994-06-23 16.4 21.8 14.0 13.8 54.8- 2.0 9.3---- 0.0------------
1994-06-22 17.5 23.8 8.6 7.3 69.3- 5.0 5.3---- 0.3------------
1994-06-21 14.2 20.0 6.3 4.9 69.3- 1.7 2.3---- 0.0------------
1994-06-20 15.8 18.6 13.5 13.3 67.8- 3.3 7.0---- 0.0------------
1994-06-19 14.4 19.0 11.0 10.6 87.3- 8.0 4.3---- 0.3------------
1994-06-18 12.0 17.7 4.5 4.3 65.8- 3.7 2.3---- 3.3------------
1994-06-17 11.2 14.7 8.5 7.8 69.0- 2.7 6.0---- 0.2------------
1994-06-16 11.1 14.1 6.5 5.4 82.0- 6.3 6.7---- 3.2------------
239.3 ms

 

Źródłem pochodzenia danych jest Instytut Meteorologii i Gospodarki Wodnej – Państwowy Instytut Badawczy. Dane Instytutu Meteorologii i Gospodarki Wodnej – Państwowego Instytutu Badawczego zostały przetworzone.

Dane źródłowe można odnaleźć na stronie https://dane.imgw.pl